createdAt,value
2022-11-17T00:00:51.887Z,31.50
2022-11-17T00:01:51.922Z,28.80
2022-11-17T00:02:51.897Z,30.00
2022-11-17T00:03:51.852Z,30.20
2022-11-17T00:04:51.839Z,32.00
2022-11-17T00:05:51.830Z,29.20
2022-11-17T00:06:51.881Z,29.90
2022-11-17T00:07:51.813Z,30.90
2022-11-17T00:08:51.798Z,28.30
2022-11-17T00:09:51.776Z,31.30
2022-11-17T00:10:51.766Z,28.30
2022-11-17T00:11:51.778Z,31.20
2022-11-17T00:12:51.745Z,31.80
2022-11-17T00:13:51.738Z,32.90
2022-11-17T00:14:51.744Z,30.40
2022-11-17T00:15:51.712Z,31.50
2022-11-17T00:16:51.725Z,33.80
2022-11-17T00:17:51.691Z,31.70
2022-11-17T00:18:51.674Z,30.60
2022-11-17T00:19:51.665Z,31.50
2022-11-17T00:20:51.658Z,32.90
2022-11-17T00:21:51.663Z,34.50
2022-11-17T00:22:51.620Z,33.60
2022-11-17T00:23:51.710Z,30.00
2022-11-17T00:24:51.621Z,35.20
2022-11-17T00:25:51.600Z,29.10
2022-11-17T00:26:51.601Z,28.70
2022-11-17T00:27:51.580Z,31.40
2022-11-17T00:28:51.577Z,33.30
2022-11-17T00:29:51.562Z,29.20
2022-11-17T00:30:51.542Z,29.20
2022-11-17T00:31:51.565Z,31.90
2022-11-17T00:32:51.533Z,30.30
2022-11-17T00:33:51.525Z,29.80
2022-11-17T00:34:51.495Z,32.10
2022-11-17T00:35:51.501Z,29.50
2022-11-17T00:36:51.508Z,32.80
2022-11-17T00:37:51.490Z,30.50
2022-11-17T00:38:51.451Z,32.20
2022-11-17T00:39:55.210Z,31.10
2022-11-17T00:40:52.448Z,30.90
2022-11-17T00:41:51.440Z,30.60
2022-11-17T00:42:51.424Z,31.60
2022-11-17T00:43:51.399Z,33.00
2022-11-17T00:44:52.398Z,29.30
2022-11-17T00:45:51.389Z,33.80
2022-11-17T00:46:51.404Z,31.60
2022-11-17T00:47:51.360Z,31.20
2022-11-17T00:48:51.386Z,29.30
2022-11-17T00:49:51.348Z,31.70
2022-11-17T00:50:51.361Z,30.70
2022-11-17T00:51:51.344Z,29.70
2022-11-17T00:52:51.337Z,32.50
2022-11-17T00:53:51.335Z,29.70
2022-11-17T00:54:51.339Z,30.70
2022-11-17T00:55:51.422Z,28.10
2022-11-17T00:56:51.277Z,28.60
2022-11-17T00:57:52.312Z,29.40
2022-11-17T00:58:51.248Z,31.00
2022-11-17T00:59:51.238Z,30.90
2022-11-17T01:00:51.233Z,32.20
2022-11-17T01:01:51.305Z,27.40
2022-11-17T01:02:51.208Z,28.20
2022-11-17T01:03:51.196Z,27.10
2022-11-17T01:04:51.189Z,27.00
2022-11-17T01:05:51.172Z,29.40
2022-11-17T01:06:51.256Z,32.00
2022-11-17T01:07:51.163Z,28.40
2022-11-17T01:08:51.193Z,31.50
2022-11-17T01:09:51.174Z,33.70
2022-11-17T01:10:51.179Z,25.30
2022-11-17T01:11:51.323Z,27.50
2022-11-17T01:12:51.827Z,25.20
2022-11-17T01:13:51.810Z,30.00
2022-11-17T01:14:51.169Z,30.00
2022-11-17T01:15:51.141Z,28.10
2022-11-17T01:16:51.168Z,21.40
2022-11-17T01:17:51.049Z,21.00
2022-11-17T01:18:51.826Z,20.10
2022-11-17T01:19:51.157Z,18.50
2022-11-17T01:20:51.023Z,20.60
2022-11-17T01:21:51.148Z,20.20
2022-11-17T01:22:50.993Z,17.30
2022-11-17T01:23:50.977Z,19.30
2022-11-17T01:24:50.980Z,19.20
2022-11-17T01:25:50.971Z,18.20
2022-11-17T01:26:51.007Z,15.50
2022-11-17T01:27:51.021Z,16.40
2022-11-17T01:28:50.934Z,15.90
2022-11-17T01:29:50.929Z,16.50
2022-11-17T01:30:50.906Z,17.80
2022-11-17T01:31:50.921Z,15.70
2022-11-17T01:32:50.886Z,17.40
2022-11-17T01:33:50.866Z,15.50
2022-11-17T01:34:50.864Z,17.80
2022-11-17T01:35:50.854Z,21.40
2022-11-17T01:36:50.861Z,16.90
2022-11-17T01:37:50.828Z,14.70
2022-11-17T01:38:50.816Z,21.00
2022-11-17T01:39:50.804Z,22.70
2022-11-17T01:40:50.801Z,19.40
2022-11-17T01:41:50.833Z,21.60
2022-11-17T01:42:50.779Z,19.20
2022-11-17T01:43:50.851Z,17.80
2022-11-17T01:44:50.760Z,19.90
2022-11-17T01:45:50.775Z,19.00
2022-11-17T01:46:50.744Z,16.00
2022-11-17T01:47:50.721Z,16.30
2022-11-17T01:48:50.714Z,18.30
2022-11-17T01:49:50.707Z,17.60
2022-11-17T01:50:50.694Z,19.10
2022-11-17T01:51:50.705Z,17.80
2022-11-17T01:52:50.701Z,18.70
2022-11-17T01:53:50.664Z,19.20
2022-11-17T01:54:50.648Z,16.60
2022-11-17T01:55:50.646Z,18.40
2022-11-17T01:56:50.654Z,17.80
2022-11-17T01:57:50.620Z,16.00
2022-11-17T01:58:50.604Z,17.20
2022-11-17T01:59:50.679Z,16.90
2022-11-17T02:00:50.598Z,16.30
2022-11-17T02:01:50.641Z,16.30
2022-11-17T02:02:50.568Z,19.30
2022-11-17T02:03:50.566Z,16.90
2022-11-17T02:04:50.549Z,17.60
2022-11-17T02:05:50.546Z,19.10
2022-11-17T02:06:50.599Z,16.80
2022-11-17T02:07:50.528Z,17.00
2022-11-17T02:08:50.510Z,20.80
2022-11-17T02:09:50.549Z,19.50
2022-11-17T02:10:51.918Z,19.80
2022-11-17T02:11:50.627Z,18.40
2022-11-17T02:12:50.556Z,21.20
2022-11-17T02:13:50.546Z,20.30
2022-11-17T02:14:50.511Z,19.60
2022-11-17T02:15:50.560Z,18.30
2022-11-17T02:16:51.301Z,19.60
2022-11-17T02:17:50.494Z,18.60
2022-11-17T02:18:50.388Z,19.30
2022-11-17T02:19:50.386Z,18.90
2022-11-17T02:20:50.383Z,19.20
2022-11-17T02:21:50.390Z,18.40
2022-11-17T02:22:50.351Z,18.60
2022-11-17T02:23:50.342Z,20.10
2022-11-17T02:24:50.342Z,21.90
2022-11-17T02:25:50.335Z,21.20
2022-11-17T02:26:50.341Z,23.30
2022-11-17T02:27:50.308Z,22.80
2022-11-17T02:28:50.296Z,25.90
2022-11-17T02:29:50.292Z,24.70
2022-11-17T02:30:50.290Z,21.50
2022-11-17T02:31:50.361Z,23.20
2022-11-17T02:32:50.278Z,26.10
2022-11-17T02:33:50.259Z,26.10
2022-11-17T02:34:50.247Z,23.10
2022-11-17T02:35:50.232Z,24.50
2022-11-17T02:36:50.212Z,23.90
2022-11-17T02:37:50.248Z,23.00
2022-11-17T02:38:50.197Z,22.50
2022-11-17T02:39:50.190Z,24.30
2022-11-17T02:40:50.178Z,24.80
2022-11-17T02:41:50.175Z,21.40
2022-11-17T02:42:50.165Z,23.80
2022-11-17T02:43:50.148Z,23.10
2022-11-17T02:44:50.137Z,24.60
2022-11-17T02:45:50.122Z,23.10
2022-11-17T02:46:50.107Z,24.30
2022-11-17T02:47:50.216Z,25.80
2022-11-17T02:48:50.085Z,25.80
2022-11-17T02:49:50.080Z,25.00
2022-11-17T02:50:50.090Z,23.70
2022-11-17T02:51:50.051Z,21.90
2022-11-17T02:52:50.092Z,21.20
2022-11-17T02:53:50.033Z,20.60
2022-11-17T02:54:50.032Z,18.10
2022-11-17T02:55:50.022Z,18.00
2022-11-17T02:56:50.047Z,17.60
2022-11-17T02:57:50.013Z,20.10
2022-11-17T02:58:49.982Z,18.30
2022-11-17T02:59:49.979Z,18.80
2022-11-17T03:00:49.968Z,19.70
2022-11-17T03:01:50.008Z,19.20
2022-11-17T03:02:49.966Z,17.90
2022-11-17T03:03:49.939Z,18.90
2022-11-17T03:04:49.930Z,16.60
2022-11-17T03:05:49.911Z,16.20
2022-11-17T03:06:49.936Z,19.80
2022-11-17T03:07:49.910Z,20.10
2022-11-17T03:08:49.888Z,21.60
2022-11-17T03:09:49.871Z,19.60
2022-11-17T03:10:49.860Z,18.30
2022-11-17T03:11:49.893Z,18.50
2022-11-17T03:12:49.860Z,18.80
2022-11-17T03:13:49.835Z,17.60
2022-11-17T03:14:49.811Z,16.20
2022-11-17T03:15:49.820Z,18.40
2022-11-17T03:16:49.801Z,19.60
2022-11-17T03:17:49.811Z,20.10
2022-11-17T03:18:49.777Z,19.00
2022-11-17T03:19:49.845Z,20.90
2022-11-17T03:20:49.769Z,23.80
2022-11-17T03:21:49.750Z,20.10
2022-11-17T03:22:49.750Z,21.00
2022-11-17T03:23:49.733Z,23.60
2022-11-17T03:24:49.717Z,23.40
2022-11-17T03:25:49.706Z,22.60
2022-11-17T03:26:49.700Z,26.50
2022-11-17T03:27:49.706Z,25.60
2022-11-17T03:28:49.676Z,23.00
2022-11-17T03:29:49.661Z,22.50
2022-11-17T03:30:49.647Z,27.90
2022-11-17T03:31:49.646Z,21.60
2022-11-17T03:32:49.665Z,24.20
2022-11-17T03:33:49.627Z,24.00
2022-11-17T03:34:49.611Z,23.60
2022-11-17T03:35:50.849Z,24.30
2022-11-17T03:36:50.597Z,22.30
2022-11-17T03:37:49.603Z,22.20
2022-11-17T03:38:49.572Z,22.50
2022-11-17T03:39:49.566Z,21.60
2022-11-17T03:40:49.557Z,23.30
2022-11-17T03:41:49.547Z,24.60
2022-11-17T03:42:49.543Z,24.70
2022-11-17T03:43:49.526Z,20.90
2022-11-17T03:44:49.508Z,24.10
2022-11-17T03:45:49.500Z,24.20
2022-11-17T03:46:49.492Z,21.20
2022-11-17T03:47:49.498Z,23.20
2022-11-17T03:48:49.472Z,22.30
2022-11-17T03:49:49.455Z,26.00
2022-11-17T03:50:49.455Z,22.80
2022-11-17T03:51:49.442Z,23.60
2022-11-17T03:52:49.454Z,22.60
2022-11-17T03:53:49.417Z,23.70
2022-11-17T03:54:49.413Z,22.00
2022-11-17T03:55:49.403Z,21.10
2022-11-17T03:56:49.382Z,20.20
2022-11-17T03:57:49.400Z,19.50
2022-11-17T03:58:49.372Z,22.70
2022-11-17T03:59:49.370Z,19.20
2022-11-17T04:00:49.353Z,18.60
2022-11-17T04:01:49.374Z,18.20
2022-11-17T04:02:49.349Z,16.90
2022-11-17T04:03:49.320Z,16.10
2022-11-17T04:04:49.315Z,16.30
2022-11-17T04:05:49.299Z,17.10
2022-11-17T04:06:49.354Z,17.50
2022-11-17T04:07:49.298Z,16.00
2022-11-17T04:08:49.275Z,18.60
2022-11-17T04:09:49.247Z,16.20
2022-11-17T04:10:49.242Z,19.40
2022-11-17T04:11:49.245Z,19.20
2022-11-17T04:12:49.258Z,17.80
2022-11-17T04:13:49.207Z,13.60
2022-11-17T04:14:49.205Z,17.40
2022-11-17T04:15:49.198Z,17.30
2022-11-17T04:16:49.188Z,14.90
2022-11-17T04:17:49.194Z,14.90
2022-11-17T04:18:49.166Z,18.50
2022-11-17T04:19:49.154Z,14.80
2022-11-17T04:20:49.147Z,18.40
2022-11-17T04:21:49.134Z,15.10
2022-11-17T04:22:49.148Z,13.90
2022-11-17T04:23:49.130Z,16.10
2022-11-17T04:24:49.106Z,15.90
2022-11-17T04:25:49.088Z,18.50
2022-11-17T04:26:49.086Z,15.80
2022-11-17T04:27:49.092Z,15.70
2022-11-17T04:28:49.059Z,14.90
2022-11-17T04:29:49.053Z,15.70
2022-11-17T04:30:49.043Z,15.90
2022-11-17T04:31:49.066Z,15.90
2022-11-17T04:32:49.042Z,14.80
2022-11-17T04:33:49.005Z,16.70
2022-11-17T04:34:49.002Z,16.50
2022-11-17T04:35:48.997Z,16.60
2022-11-17T04:36:48.980Z,15.10
2022-11-17T04:37:49.014Z,15.40
2022-11-17T04:38:48.961Z,16.10
2022-11-17T04:39:48.961Z,15.40
2022-11-17T04:40:48.949Z,17.10
2022-11-17T04:41:48.938Z,15.30
2022-11-17T04:42:48.978Z,17.50
2022-11-17T04:43:48.920Z,15.80
2022-11-17T04:44:48.903Z,15.50
2022-11-17T04:45:48.889Z,14.80
2022-11-17T04:46:48.878Z,17.20
2022-11-17T04:47:48.882Z,15.60
2022-11-17T04:48:48.861Z,15.80
2022-11-17T04:49:48.842Z,15.90
2022-11-17T04:50:48.833Z,14.30
2022-11-17T04:51:48.837Z,15.10
2022-11-17T04:52:48.837Z,15.10
2022-11-17T04:53:48.799Z,15.30
2022-11-17T04:54:48.802Z,14.70
2022-11-17T04:55:48.872Z,15.00
2022-11-17T04:56:48.780Z,15.70
2022-11-17T04:57:48.788Z,16.10
2022-11-17T04:58:48.759Z,15.20
2022-11-17T04:59:48.749Z,16.80
2022-11-17T05:00:48.746Z,13.40
2022-11-17T05:01:48.768Z,14.70
2022-11-17T05:02:48.735Z,14.90
2022-11-17T05:03:48.709Z,16.00
2022-11-17T05:04:48.698Z,16.50
2022-11-17T05:05:48.691Z,15.00
2022-11-17T05:06:48.677Z,16.70
2022-11-17T05:07:48.684Z,15.50
2022-11-17T05:08:48.662Z,16.80
2022-11-17T05:09:48.657Z,16.80
2022-11-17T05:10:48.668Z,16.10
2022-11-17T05:11:48.720Z,15.80
2022-11-17T05:12:48.640Z,16.40
2022-11-17T05:13:48.632Z,18.90
2022-11-17T05:14:48.622Z,16.30
2022-11-17T05:15:48.593Z,16.60
2022-11-17T05:16:48.576Z,17.60
2022-11-17T05:17:48.600Z,20.90
2022-11-17T05:18:48.557Z,16.80
2022-11-17T05:19:48.562Z,17.00
2022-11-17T05:20:48.542Z,16.10
2022-11-17T05:21:48.559Z,15.30
2022-11-17T05:22:48.572Z,18.20
2022-11-17T05:23:48.509Z,17.50
2022-11-17T05:24:48.502Z,16.30
2022-11-17T05:25:48.493Z,16.50
2022-11-17T05:26:48.483Z,17.40
2022-11-17T05:27:48.572Z,17.30
2022-11-17T05:28:48.461Z,14.80
2022-11-17T05:29:48.451Z,18.50
2022-11-17T05:30:48.439Z,15.50
2022-11-17T05:31:48.434Z,14.40
2022-11-17T05:32:48.442Z,13.40
2022-11-17T05:33:48.405Z,14.60
2022-11-17T05:34:48.405Z,15.40
2022-11-17T05:35:48.395Z,15.90
2022-11-17T05:36:48.381Z,12.30
2022-11-17T05:37:48.369Z,14.20
2022-11-17T05:38:48.393Z,13.40
2022-11-17T05:39:48.347Z,11.80
2022-11-17T05:40:48.342Z,15.30
2022-11-17T05:41:48.334Z,13.80
2022-11-17T05:42:50.724Z,14.30
2022-11-17T05:43:48.324Z,12.00
2022-11-17T05:44:48.315Z,13.50
2022-11-17T05:45:48.293Z,13.10
2022-11-17T05:46:48.285Z,11.10
2022-11-17T05:47:48.271Z,11.50
2022-11-17T05:48:48.286Z,10.20
2022-11-17T05:49:48.249Z,11.40
2022-11-17T05:50:48.242Z,14.50
2022-11-17T05:51:52.445Z,11.20
2022-11-17T05:52:49.227Z,11.50
2022-11-17T05:53:48.232Z,10.30
2022-11-17T05:54:48.190Z,9.90
2022-11-17T05:55:48.188Z,10.70
2022-11-17T05:56:48.185Z,12.10
2022-11-17T05:57:48.174Z,11.70
2022-11-17T05:58:48.174Z,11.10
2022-11-17T05:59:48.234Z,12.20
2022-11-17T06:00:48.148Z,10.30
2022-11-17T06:01:48.137Z,9.40
2022-11-17T06:02:48.110Z,11.60
2022-11-17T06:03:48.202Z,11.00
2022-11-17T06:06:06.817Z,10.30
2022-11-17T06:07:06.920Z,9.30
2022-11-17T06:08:06.832Z,12.70
2022-11-17T06:09:06.798Z,14.60
2022-11-17T06:10:06.789Z,13.90
2022-11-17T06:11:06.780Z,13.70
2022-11-17T06:12:06.844Z,14.10
2022-11-17T06:13:06.783Z,14.20
2022-11-17T06:14:06.750Z,16.40
2022-11-17T06:15:06.829Z,13.20
2022-11-17T06:16:06.735Z,14.00
2022-11-17T06:17:06.714Z,14.30
2022-11-17T06:18:06.764Z,11.60
2022-11-17T06:19:06.697Z,11.70
2022-11-17T06:20:07.813Z,12.20
2022-11-17T06:21:07.803Z,13.60
2022-11-17T06:22:12.788Z,20.10
2022-11-17T06:23:09.798Z,15.10
2022-11-17T06:24:07.768Z,14.60
2022-11-17T06:25:07.756Z,13.50
2022-11-17T06:26:07.743Z,13.80
2022-11-17T06:27:07.725Z,11.20
2022-11-17T06:28:08.743Z,12.50
2022-11-17T06:29:07.727Z,13.30
2022-11-17T06:30:07.703Z,14.90
2022-11-17T06:31:07.773Z,11.70
2022-11-17T06:32:07.683Z,14.80
2022-11-17T06:33:07.690Z,15.90
2022-11-17T06:34:07.651Z,16.80
2022-11-17T06:35:07.651Z,20.20
2022-11-17T06:36:07.638Z,19.80
2022-11-17T06:37:07.628Z,15.40
2022-11-17T06:38:07.636Z,17.30
2022-11-17T06:39:07.606Z,16.40
2022-11-17T06:40:07.612Z,15.00
2022-11-17T06:41:11.827Z,18.30
2022-11-17T06:42:08.603Z,13.90
2022-11-17T06:43:07.619Z,15.50
2022-11-17T06:44:07.559Z,14.60
2022-11-17T06:45:07.553Z,12.70
2022-11-17T06:46:07.543Z,13.30
2022-11-17T06:47:07.615Z,12.20
2022-11-17T06:48:07.539Z,11.00
2022-11-17T06:49:07.507Z,10.90
2022-11-17T06:50:07.490Z,12.30
2022-11-17T06:51:07.488Z,15.00
2022-11-17T06:52:07.479Z,14.10
2022-11-17T06:53:07.486Z,15.00
2022-11-17T06:54:07.461Z,9.40
2022-11-17T06:55:07.447Z,10.20
2022-11-17T06:56:07.442Z,12.90
2022-11-17T06:57:07.430Z,8.70
2022-11-17T06:58:07.426Z,10.50
2022-11-17T06:59:07.409Z,10.50
2022-11-17T07:00:07.444Z,12.00
2022-11-17T07:01:07.391Z,13.50
2022-11-17T07:02:07.364Z,10.90
2022-11-17T07:03:07.467Z,15.20
2022-11-17T07:04:07.364Z,13.10
2022-11-17T07:05:07.347Z,14.00
2022-11-17T07:06:07.330Z,11.10
2022-11-17T07:07:07.405Z,13.40
2022-11-17T07:08:08.367Z,10.60
2022-11-17T07:09:08.306Z,8.40
2022-11-17T07:10:07.293Z,11.80
2022-11-17T07:11:07.299Z,8.80
2022-11-17T07:12:07.273Z,9.50
2022-11-17T07:13:07.279Z,10.00
2022-11-17T07:14:07.250Z,11.90
2022-11-17T07:15:07.238Z,11.50
2022-11-17T07:16:08.230Z,9.80
2022-11-17T07:17:07.224Z,8.70
2022-11-17T07:18:07.198Z,11.30
2022-11-17T07:19:07.381Z,9.30
2022-11-17T07:20:07.186Z,9.20
2022-11-17T07:21:07.240Z,10.30
2022-11-17T07:22:07.153Z,10.60
2022-11-17T07:23:07.159Z,9.70
2022-11-17T07:24:07.176Z,10.80
2022-11-17T07:25:07.205Z,10.40
2022-11-17T07:26:07.181Z,7.90
2022-11-17T07:27:07.124Z,7.90
2022-11-17T07:28:07.103Z,7.40
2022-11-17T07:29:07.121Z,8.80
2022-11-17T07:30:07.078Z,8.60
2022-11-17T07:31:07.065Z,7.60
2022-11-17T07:32:07.067Z,7.50
2022-11-17T07:33:07.048Z,8.60
2022-11-17T07:34:07.055Z,7.50
2022-11-17T07:35:07.116Z,7.10
2022-11-17T07:36:07.029Z,7.70
2022-11-17T07:37:07.010Z,7.10
2022-11-17T07:38:06.995Z,8.50
2022-11-17T07:39:07.010Z,6.40
2022-11-17T07:40:06.986Z,7.10
2022-11-17T07:41:06.993Z,5.90
2022-11-17T07:42:06.956Z,7.30
2022-11-17T07:43:06.949Z,5.30
2022-11-17T07:44:06.964Z,6.40
2022-11-17T07:45:06.925Z,6.30
2022-11-17T07:46:06.905Z,7.70
2022-11-17T07:47:06.912Z,6.00
2022-11-17T07:48:06.896Z,7.80
2022-11-17T07:49:06.905Z,8.30
2022-11-17T07:50:06.869Z,6.90
2022-11-17T07:51:06.944Z,7.40
2022-11-17T07:52:06.854Z,7.50
2022-11-17T07:53:06.842Z,6.10
2022-11-17T07:54:06.842Z,6.20
2022-11-17T07:55:06.822Z,6.40
2022-11-17T07:56:06.816Z,7.30
2022-11-17T07:57:06.803Z,6.00
2022-11-17T07:58:06.791Z,6.50
2022-11-17T07:59:06.801Z,7.20
2022-11-17T08:00:06.775Z,7.40
2022-11-17T08:01:06.832Z,7.80
2022-11-17T08:02:06.735Z,6.30
2022-11-17T08:03:06.741Z,6.90
2022-11-17T08:04:06.840Z,6.30
2022-11-17T08:05:06.717Z,6.10
2022-11-17T08:06:06.708Z,6.70
2022-11-17T08:07:06.746Z,6.30
2022-11-17T08:08:06.694Z,7.10
2022-11-17T08:09:06.701Z,6.60
2022-11-17T08:10:06.679Z,6.90
2022-11-17T08:11:06.656Z,7.00
2022-11-17T08:12:06.653Z,6.70
2022-11-17T08:13:06.646Z,9.10
2022-11-17T08:14:06.642Z,9.80
2022-11-17T08:15:06.627Z,5.80
2022-11-17T08:16:06.609Z,6.80
2022-11-17T08:17:06.602Z,6.00
2022-11-17T08:18:06.594Z,7.70
2022-11-17T08:19:06.592Z,7.20
2022-11-17T08:20:06.566Z,6.40
2022-11-17T08:21:06.557Z,7.20
2022-11-17T08:22:06.546Z,6.70
2022-11-17T08:23:06.627Z,7.20
2022-11-17T08:24:06.551Z,6.30
2022-11-17T08:25:06.525Z,7.30
2022-11-17T08:26:06.511Z,7.20
2022-11-17T08:27:06.505Z,6.30
2022-11-17T08:28:06.505Z,7.20
2022-11-17T08:29:06.510Z,7.00
2022-11-17T08:30:06.470Z,6.20
2022-11-17T08:31:06.473Z,6.40
2022-11-17T08:32:06.452Z,8.20
2022-11-17T08:33:06.444Z,8.20
2022-11-17T08:34:06.446Z,7.10
2022-11-17T08:35:06.425Z,7.00
2022-11-17T08:36:06.399Z,7.00
2022-11-17T08:37:06.400Z,7.50
2022-11-17T08:38:06.392Z,7.00
2022-11-17T08:39:06.496Z,7.80
2022-11-17T08:40:06.382Z,8.40
2022-11-17T08:41:06.355Z,6.90
2022-11-17T08:42:06.347Z,6.50
2022-11-17T08:43:06.339Z,7.30
2022-11-17T08:44:06.351Z,9.20
2022-11-17T08:45:06.328Z,6.20
2022-11-17T08:46:06.340Z,6.50
2022-11-17T08:47:06.302Z,6.90
2022-11-17T08:48:06.291Z,8.10
2022-11-17T08:49:06.301Z,6.50
2022-11-17T08:50:06.262Z,5.50
2022-11-17T08:51:06.262Z,5.60
2022-11-17T08:52:06.245Z,5.10
2022-11-17T08:53:06.238Z,5.10
2022-11-17T08:54:06.240Z,5.20
2022-11-17T08:55:06.243Z,7.00
2022-11-17T08:56:06.213Z,5.40
2022-11-17T08:57:06.274Z,4.90
2022-11-17T08:58:06.186Z,5.80
2022-11-17T08:59:06.204Z,4.30
2022-11-17T09:00:06.166Z,4.50
2022-11-17T09:01:06.286Z,5.40
2022-11-17T09:02:06.143Z,4.60
2022-11-17T09:03:06.138Z,6.50
2022-11-17T09:04:06.151Z,7.10
2022-11-17T09:05:06.113Z,6.30
2022-11-17T09:06:06.103Z,5.10
2022-11-17T09:07:06.154Z,5.10
2022-11-17T09:08:22.734Z,5.50
2022-11-17T09:09:08.103Z,6.40
2022-11-17T09:10:06.066Z,8.00
2022-11-17T09:11:06.145Z,5.70
2022-11-17T09:12:06.957Z,7.20
2022-11-17T09:13:06.035Z,5.50
2022-11-17T09:14:06.048Z,5.90
2022-11-17T09:15:06.036Z,5.50
2022-11-17T09:16:06.003Z,5.90
2022-11-17T09:17:05.997Z,5.50
2022-11-17T09:18:05.983Z,6.20
2022-11-17T09:19:06.004Z,6.20
2022-11-17T09:20:05.964Z,6.20
2022-11-17T09:21:05.954Z,5.20
2022-11-17T09:22:05.953Z,6.40
2022-11-17T09:23:05.936Z,7.30
2022-11-17T09:24:05.947Z,7.00
2022-11-17T09:25:10.375Z,5.40
2022-11-17T09:26:06.905Z,6.70
2022-11-17T09:27:05.895Z,6.20
2022-11-17T09:28:05.886Z,4.90
2022-11-17T09:29:05.893Z,6.20
2022-11-17T09:30:05.869Z,5.30
2022-11-17T09:31:05.922Z,6.10
2022-11-17T09:32:05.848Z,6.40
2022-11-17T09:33:05.828Z,6.90
2022-11-17T09:34:06.206Z,5.40
2022-11-17T09:35:05.815Z,5.30
2022-11-17T09:36:05.810Z,4.60
2022-11-17T09:37:05.791Z,5.30
2022-11-17T09:38:05.788Z,5.00
2022-11-17T09:39:05.808Z,7.40
2022-11-17T09:40:05.770Z,4.40
2022-11-17T09:41:05.748Z,4.60
2022-11-17T09:42:05.766Z,5.10
2022-11-17T09:43:05.818Z,4.80
2022-11-17T09:44:05.744Z,5.30
2022-11-17T09:45:05.711Z,5.10
2022-11-17T09:46:07.685Z,5.40
2022-11-17T09:47:06.704Z,4.40
2022-11-17T09:48:33.691Z,5.00
2022-11-17T09:49:07.703Z,4.00
2022-11-17T09:50:05.750Z,4.50
2022-11-17T09:51:05.680Z,4.70
2022-11-17T09:52:05.655Z,5.30
2022-11-17T09:53:05.639Z,3.30
2022-11-17T09:54:05.649Z,4.50
2022-11-17T09:55:05.628Z,4.40
2022-11-17T09:56:05.609Z,4.30
2022-11-17T09:57:05.603Z,3.00
2022-11-17T09:58:05.589Z,4.20
2022-11-17T09:59:05.590Z,4.30
2022-11-17T10:00:06.570Z,3.70
2022-11-17T10:01:05.561Z,3.80
2022-11-17T10:02:05.569Z,3.70
2022-11-17T10:03:05.539Z,4.30
2022-11-17T10:04:05.549Z,3.70
2022-11-17T10:05:05.516Z,4.70
2022-11-17T10:06:05.517Z,5.30
2022-11-17T10:07:05.545Z,4.30
2022-11-17T10:08:05.535Z,3.20
2022-11-17T10:09:05.551Z,3.40
2022-11-17T10:10:06.470Z,3.40
2022-11-17T10:11:06.020Z,4.90
2022-11-17T10:12:05.467Z,3.70
2022-11-17T10:13:05.514Z,3.80
2022-11-17T10:14:05.460Z,4.00
2022-11-17T10:15:05.494Z,4.80
2022-11-17T10:16:05.399Z,4.60
2022-11-17T10:17:05.397Z,16.70
2022-11-17T10:18:05.382Z,5.30
2022-11-17T10:19:05.398Z,7.10
2022-11-17T10:20:05.370Z,4.00
2022-11-17T10:21:05.362Z,5.80
2022-11-17T10:22:05.356Z,3.90
2022-11-17T10:23:05.457Z,4.20
2022-11-17T10:24:05.389Z,4.30
2022-11-17T10:25:05.459Z,3.80
2022-11-17T10:26:05.344Z,4.90
2022-11-17T10:27:05.360Z,4.00
2022-11-17T10:28:05.384Z,5.40
2022-11-17T10:29:08.561Z,4.90
2022-11-17T10:30:06.275Z,5.60
2022-11-17T10:31:05.408Z,6.30
2022-11-17T10:32:05.356Z,4.50
2022-11-17T10:33:05.396Z,4.50
2022-11-17T10:34:05.355Z,5.00
2022-11-17T10:35:05.212Z,4.80
2022-11-17T10:36:05.205Z,4.30
2022-11-17T10:37:05.198Z,4.40
2022-11-17T10:38:05.182Z,6.00
2022-11-17T10:39:05.322Z,3.60
2022-11-17T10:40:05.175Z,4.90
2022-11-17T10:41:05.160Z,4.80
2022-11-17T10:42:05.150Z,4.80
2022-11-17T10:43:05.139Z,5.60
2022-11-17T10:44:05.157Z,4.80
2022-11-17T10:45:05.123Z,5.10
2022-11-17T10:46:05.109Z,5.20
2022-11-17T10:47:05.088Z,6.90
2022-11-17T10:48:06.089Z,5.20
2022-11-17T10:49:05.163Z,5.20
2022-11-17T10:50:05.111Z,7.60
2022-11-17T10:51:05.065Z,6.30
2022-11-17T10:52:05.053Z,5.30
2022-11-17T10:53:08.725Z,5.80
2022-11-17T10:54:06.023Z,4.10
2022-11-17T10:55:05.041Z,5.00
2022-11-17T10:56:05.008Z,6.50
2022-11-17T10:57:05.002Z,5.30
2022-11-17T10:58:05.005Z,6.40
2022-11-17T10:59:04.975Z,6.90
2022-11-17T11:00:04.997Z,5.80
2022-11-17T11:01:04.996Z,7.40
2022-11-17T11:02:04.940Z,5.30
2022-11-17T11:03:04.952Z,5.90
2022-11-17T11:04:04.933Z,5.20
2022-11-17T11:05:04.940Z,7.40
2022-11-17T11:06:04.930Z,6.60
2022-11-17T11:07:05.003Z,5.20
2022-11-17T11:08:04.925Z,5.80
2022-11-17T11:09:04.915Z,4.60
2022-11-17T11:10:04.921Z,4.40
2022-11-17T11:11:04.843Z,6.70
2022-11-17T11:12:05.847Z,4.60
2022-11-17T11:13:04.835Z,4.50
2022-11-17T11:14:04.820Z,4.70
2022-11-17T11:15:04.879Z,5.30
2022-11-17T11:16:04.812Z,5.60
2022-11-17T11:17:04.801Z,4.90
2022-11-17T11:18:04.775Z,5.00
2022-11-17T11:19:04.780Z,3.70
2022-11-17T11:20:04.783Z,4.80
2022-11-17T11:21:04.804Z,4.40
2022-11-17T11:22:04.771Z,4.00
2022-11-17T11:23:04.764Z,3.60
2022-11-17T11:24:04.776Z,4.00
2022-11-17T11:25:04.811Z,3.70
2022-11-17T11:26:04.760Z,3.60
2022-11-17T11:27:04.764Z,4.20
2022-11-17T11:28:04.799Z,3.40
2022-11-17T11:29:04.709Z,4.90
2022-11-17T11:30:04.693Z,4.40
2022-11-17T11:31:04.720Z,3.30
2022-11-17T11:32:04.647Z,5.00
2022-11-17T11:33:04.632Z,4.50
2022-11-17T11:34:04.623Z,3.40
2022-11-17T11:35:04.633Z,2.70
2022-11-17T11:36:04.606Z,5.00
2022-11-17T11:37:04.594Z,3.60
2022-11-17T11:38:04.574Z,3.10
2022-11-17T11:39:04.576Z,3.20
2022-11-17T11:40:04.605Z,3.60
2022-11-17T11:41:04.557Z,3.10
2022-11-17T11:42:07.940Z,2.30
2022-11-17T11:43:04.527Z,3.20
2022-11-17T11:44:04.524Z,4.60
2022-11-17T11:45:04.533Z,5.10
2022-11-17T11:46:04.491Z,4.50
2022-11-17T11:47:04.488Z,3.80
2022-11-17T11:48:04.486Z,2.80
2022-11-17T11:49:04.470Z,3.30
2022-11-17T11:50:04.479Z,4.10
2022-11-17T11:51:04.569Z,5.20
2022-11-17T11:52:04.449Z,4.00
2022-11-17T11:53:04.433Z,3.80
2022-11-17T11:54:04.420Z,3.50
2022-11-17T11:55:04.451Z,3.80
2022-11-17T11:56:04.404Z,3.60
2022-11-17T11:57:04.399Z,4.40
2022-11-17T11:58:04.376Z,3.60
2022-11-17T11:59:04.367Z,4.70
2022-11-17T12:00:05.084Z,5.30
2022-11-17T12:01:05.351Z,4.00
2022-11-17T12:02:04.344Z,3.80
2022-11-17T12:03:04.420Z,5.00
2022-11-17T12:04:04.330Z,5.70
2022-11-17T12:05:04.334Z,4.00
2022-11-17T12:06:04.305Z,2.30
2022-11-17T12:07:04.332Z,3.00
2022-11-17T12:08:10.159Z,2.50
2022-11-17T12:09:05.275Z,3.10
2022-11-17T12:10:04.284Z,2.60
2022-11-17T12:11:04.261Z,4.50
2022-11-17T12:12:04.250Z,2.30
2022-11-17T12:13:04.233Z,2.90
2022-11-17T12:14:04.227Z,3.30
2022-11-17T12:15:04.241Z,2.30
2022-11-17T12:16:04.217Z,2.80
2022-11-17T12:17:04.181Z,1.90
2022-11-17T12:18:04.188Z,3.40
2022-11-17T12:19:04.180Z,2.40
2022-11-17T12:20:10.520Z,2.70
2022-11-17T12:21:05.248Z,3.50
2022-11-17T12:22:04.148Z,3.40
2022-11-17T12:23:04.136Z,3.20
2022-11-17T12:24:04.135Z,2.10
2022-11-17T12:25:04.127Z,3.20
2022-11-17T12:26:04.107Z,3.70
2022-11-17T12:27:04.111Z,2.60
2022-11-17T12:28:04.090Z,2.70
2022-11-17T12:29:04.073Z,4.20
2022-11-17T12:30:04.095Z,2.90
2022-11-17T12:31:09.704Z,2.30
2022-11-17T12:32:06.049Z,5.10
2022-11-17T12:33:04.042Z,11.70
2022-11-17T12:34:04.027Z,9.00
2022-11-17T12:35:04.037Z,10.40
2022-11-17T12:36:04.006Z,11.80
2022-11-17T12:37:03.987Z,28.80
2022-11-17T12:38:04.984Z,16.30
2022-11-17T12:39:03.981Z,21.00
2022-11-17T12:40:03.988Z,59.70
2022-11-17T12:41:03.945Z,32.90
2022-11-17T12:42:03.945Z,13.80
2022-11-17T12:43:03.968Z,17.60
2022-11-17T12:44:03.921Z,16.50
2022-11-17T12:45:03.928Z,16.20
2022-11-17T12:46:03.901Z,10.80
2022-11-17T12:47:03.898Z,33.50
2022-11-17T12:48:32.364Z,46.50
2022-11-17T12:49:05.889Z,132.30
2022-11-17T12:50:03.872Z,104.20
2022-11-17T12:51:05.161Z,151.10
2022-11-17T12:52:04.842Z,45.20
2022-11-17T12:53:03.814Z,60.50
2022-11-17T12:54:03.818Z,18.90
2022-11-17T12:55:03.833Z,29.20
2022-11-17T12:56:03.804Z,23.10
2022-11-17T12:57:03.791Z,27.10
2022-11-17T12:58:09.084Z,31.70
2022-11-17T12:59:05.774Z,22.20
2022-11-17T13:00:03.781Z,19.80
2022-11-17T13:01:03.798Z,34.30
2022-11-17T13:02:03.743Z,28.00
2022-11-17T13:03:03.736Z,11.10
2022-11-17T13:04:03.719Z,11.60